ロンドン・ヒースロー空港の過去48時間の天気

ロンドン・ヒースロー空港 (London / Heathrow Airport)

現在時刻: 9/25 22:10 BST (9/25 21:10 UTC) 以下の時間は現地時間です。

過去48時間のMETAR気象情報
時間 風向 風速(m/s) 視程 気温(℃) 湿度(%) 気圧(hPa) 天気現象
25 21:50 西南西 5 10km以上 13 67 1013
25 21:20 西南西 5 10km以上 13 62 1014
25 20:50 西南西 5 10km以上 13 58 1014
25 20:20 西南西 5 10km以上 13 58 1014
25 19:50 西南西 4 10km以上 14 51 1014
25 19:20 西 4 10km以上 14 51 1015
25 18:50 西 4 10km以上 14 51 1015
25 18:20 西 4 10km以上 14 47 1016
25 17:50 西 4 10km以上 15 45 1016
25 17:20 西北西 4 10km以上 16 45 1016
25 16:50 北西 3 10km以上 15 48 1017
25 16:20 西北西 4 10km以上 16 45 1017
25 15:50 西北西 4 10km以上 16 45 1017
25 15:20 西北西 4 10km以上 16 42 1018
25 14:50 西 3 10km以上 15 48 1018
25 14:20 北北西 3 10km以上 16 45 1018
25 13:50 西北西 4 10km以上 15 51 1018
25 13:20 2 10km以上 15 48 1019
25 12:50 北北西 3 10km以上 15 48 1019
25 12:20 北北西 4 10km以上 15 48 1019
25 11:50 3 10km以上 15 51 1020
25 11:20 北北西 3 10km以上 14 55 1020
25 10:50 3 10km以上 14 63 1020
25 10:20 北北西 3 10km以上 13 72 1021
25 09:50 3 10km以上 12 77 1021
25 09:20 3 10km以上 11 82 1020
25 08:50 3 10km以上 11 76 1020
25 08:20 2 10km以上 10 82 1020
25 07:50 2 10km以上 9 87 1020
25 07:20 2 10km以上 9 87 1020
25 06:50 3 10km以上 9 87 1020
25 06:20 2 10km以上 9 87 1020
25 05:50 北北西 2 10km以上 9 87 1020
25 05:20 2 10km以上 9 87 1020
25 04:50 2 10km以上 9 87 1020
25 04:20 3 10km以上 10 82 1020
25 03:50 2 10km以上 10 87 1020
25 03:20 2 10km以上 10 87 1020
25 02:50 3 10km以上 10 87 1020
25 02:20 2 10km以上 11 82 1020
25 01:50 2 10km以上 11 82 1020
25 01:20 2 10km以上 11 82 1020
25 00:50 3 10km以上 12 82 1020
25 00:20 北北東 2 10km以上 12 82 1020
24 23:50 3 10km以上 12 82 1020
24 23:20 4 10km以上 13 77 1020
24 22:50 3 10km以上 13 77 1020
24 22:20 2 10km以上 13 77 1020
24 21:50 3 10km以上 13 77 1020
24 21:20 北北東 3 10km以上 14 72 1019
24 20:50 北北東 3 10km以上 14 72 1019
24 20:20 4 10km以上 14 67 1019
24 19:50 3 10km以上 15 63 1019
24 19:20 4 10km以上 15 67 1018
24 18:50 北北東 3 10km以上 15 63 1018
24 18:20 北北東 4 10km以上 16 59 1018
24 17:50 北北東 4 10km以上 16 59 1017
24 17:20 4 10km以上 17 52 1017
24 16:50 北東 4 10km以上 17 55 1016
24 16:20 北北東 6 10km以上 18 49 1016
24 15:50 5 10km以上 18 52 1017
24 15:20 5 10km以上 18 52 1017
24 14:50 4 10km以上 18 49 1017
24 14:20 北北東 4 10km以上 18 52 1017
24 13:50 5 10km以上 17 52 1017
24 13:20 北北東 4 10km以上 16 55 1017
24 12:50 北北東 4 10km以上 17 55 1017
24 12:20 4 10km以上 16 59 1017
24 11:50 4 10km以上 16 63 1017
24 11:20 4 10km以上 15 67 1017
24 10:50 4 10km以上 14 67 1017
24 10:20 北北東 3 10km以上 14 72 1017
24 09:50 3 10km以上 13 77 1017
24 09:20 北北東 2 10km以上 12 82 1017
24 08:50 2 10km以上 12 82 1016
24 08:20 北北西 2 10km以上 11 82 1016
24 07:50 不定 1 10km以上 10 87 1016
24 07:20 西北西 2 10km以上 10 87 1016
24 06:50 西北西 2 10km以上 10 87 1015
24 06:20 西北西 2 10km以上 10 94 1015
24 05:50 西北西 2 10km以上 10 94 1015
24 05:20 西北西 2 10km以上 9 100 1015
24 04:50 西北西 1 10km以上 10 94 1015
24 04:20 不定 1 10km以上 11 87 1015
24 03:50 不定 1 10km以上 11 87 1015
24 03:20 不定 1 10km以上 11 87 1015
24 02:50 不定 1 10km以上 11 87 1015
24 02:20 不定 1 10km以上 11 87 1015
24 01:50 2 10km以上 12 88 1015
24 01:20 2 10km以上 12 88 1015
24 00:50 北北西 2 10km以上 13 82 1015
24 00:20 2 10km以上 13 82 1015
23 23:50 北北東 2 10km以上 13 82 1015
23 23:20 2 10km以上 14 77 1015
23 22:50 2 10km以上 14 82 1015
23 22:20 2 10km以上 15 77 1015
EGLL 252050Z AUTO 25010KT 9999 BKN041 13/07 Q1013
EGLL 252020Z AUTO 24010KT 9999 BKN041 13/06 Q1014 NOSIG
EGLL 251950Z AUTO 24009KT 9999 NCD 13/05 Q1014 NOSIG
EGLL 251920Z AUTO 24010KT 9999 NCD 13/05 Q1014 NOSIG
EGLL 251850Z AUTO 24007KT 9999 NCD 14/04 Q1014 NOSIG
EGLL 251820Z AUTO 26008KT 9999 NCD 14/04 Q1015 NOSIG
EGLL 251750Z AUTO 27007KT 9999 NCD 14/04 Q1015 NOSIG
EGLL 251720Z AUTO 28007KT 9999 NCD 14/03 Q1016
EGLL 251650Z AUTO 28007KT 250V320 9999 NCD 15/03 Q1016 NOSIG
EGLL 251620Z AUTO 30007KT 9999 NCD 16/04 Q1016
EGLL 251550Z AUTO 32006KT 9999 NCD 15/04 Q1017
EGLL 251520Z AUTO 30007KT 270V340 9999 NCD 16/04 Q1017 NOSIG
EGLL 251450Z AUTO 30007KT 9999 NCD 16/04 Q1017 NOSIG
EGLL 251420Z AUTO 29007KT 260V320 9999 NCD 16/03 Q1018
EGLL 251350Z AUTO 28006KT 240V310 9999 NCD 15/04 Q1018 NOSIG
EGLL 251320Z AUTO 34006KT 270V030 9999 NCD 16/04 Q1018 NOSIG
EGLL 251250Z AUTO 29007KT 9999 BKN047 15/05 Q1018
EGLL 251220Z AUTO 01003KT 320V070 9999 SCT045 15/04 Q1019
EGLL 251150Z AUTO 34006KT 280V060 9999 SCT048 15/04 Q1019
EGLL 251120Z AUTO 33007KT 290V360 9999 FEW046 15/04 Q1019 NOSIG
EGLL 251050Z AUTO 01005KT 300V080 9999 FEW042 15/05 Q1020 NOSIG
EGLL 251020Z AUTO 33005KT 270V030 9999 FEW036 14/05 Q1020
EGLL 250950Z AUTO 36005KT 290V070 9999 NCD 14/07 Q1020 NOSIG
EGLL 250920Z AUTO 34006KT 290V040 9999 NCD 13/08 Q1021 NOSIG
EGLL 250850Z AUTO 36006KT 310V030 9999 NCD 12/08 Q1021
EGLL 250820Z AUTO 01006KT 330V040 9999 NCD 11/08 Q1020 NOSIG
EGLL 250750Z AUTO 01005KT 310V050 9999 NCD 11/07 Q1020
EGLL 250720Z AUTO 36004KT 330V060 9999 NCD 10/07 Q1020 NOSIG
EGLL 250650Z AUTO 36003KT 320V040 9999 NCD 09/07 Q1020 NOSIG
EGLL 250620Z AUTO 36004KT 310V040 9999 NCD 09/07 Q1020 NOSIG
EGLL 250550Z AUTO 35005KT 320V020 9999 NCD 09/07 Q1020 NOSIG
EGLL 250520Z AUTO 35003KT 300V040 9999 NCD 09/07 Q1020 NOSIG
EGLL 250450Z AUTO 34003KT 290V030 9999 NCD 09/07 Q1020
EGLL 250420Z AUTO 35004KT 310V030 9999 NCD 09/07 Q1020 NOSIG
EGLL 250350Z AUTO 36004KT 9999 NCD 09/07 Q1020
EGLL 250320Z AUTO 36005KT 9999 NCD 10/07 Q1020 NOSIG
EGLL 250250Z AUTO 35004KT 9999 NCD 10/08 Q1020
EGLL 250220Z AUTO 36004KT 330V050 9999 NCD 10/08 Q1020 NOSIG
EGLL 250150Z AUTO 36005KT 320V020 9999 NCD 10/08 Q1020 NOSIG
EGLL 250120Z AUTO 35004KT 9999 NCD 11/08 Q1020 NOSIG
EGLL 250050Z AUTO 36004KT 9999 NCD 11/08 Q1020 NOSIG
EGLL 250020Z AUTO 36004KT 9999 NCD 11/08 Q1020
EGLL 242350Z AUTO 01005KT 340V070 9999 NCD 12/09 Q1020 NOSIG
EGLL 242320Z AUTO 02004KT 340V060 9999 NCD 12/09 Q1020
EGLL 242250Z AUTO 36006KT 9999 NCD 12/09 Q1020 NOSIG
EGLL 242220Z AUTO 01007KT 330V040 9999 NCD 13/09 Q1020 NOSIG
EGLL 242150Z AUTO 01006KT 9999 NCD 13/09 Q1020 NOSIG
EGLL 242120Z AUTO 01004KT 330V090 9999 NCD 13/09 Q1020 NOSIG
EGLL 242050Z AUTO 36005KT 330V030 9999 NCD 13/09 Q1020 NOSIG
EGLL 242020Z AUTO 03006KT 350V050 9999 NCD 14/09 Q1019 NOSIG
EGLL 241950Z AUTO 02006KT 310V050 9999 NCD 14/09 Q1019 NOSIG
EGLL 241920Z AUTO 01007KT 330V040 9999 NCD 14/08 Q1019
EGLL 241850Z AUTO 01006KT 330V070 9999 NCD 15/08 Q1019 NOSIG
EGLL 241820Z AUTO 01007KT 330V050 9999 FEW038 15/09 Q1018
EGLL 241750Z AUTO 02006KT 310V070 9999 //////CB 15/08 Q1018
EGLL 241720Z AUTO 03007KT 350V060 9999 FEW039 16/08 Q1018
EGLL 241650Z AUTO 03008KT 350V070 9999 FEW039 16/08 Q1017
EGLL 241620Z AUTO 01007KT 350V060 9999 FEW042/// //////TCU 17/07 Q1017 NOSIG
EGLL 241550Z AUTO 04007KT 350V060 9999 NCD 17/08 Q1016
EGLL 241520Z AUTO 03011KT 9999 BKN044 18/07 Q1016
EGLL 241450Z AUTO 01009KT 340V050 9999 NCD 18/08 Q1017 NOSIG
EGLL 241420Z AUTO 01009KT 320V040 9999 SCT046 18/08 Q1017 NOSIG
EGLL 241350Z AUTO 01008KT 320V060 9999 FEW046 18/07 Q1017 NOSIG
EGLL 241320Z AUTO 02007KT 320V080 9999 BKN042 18/08 Q1017 NOSIG
EGLL 241250Z AUTO 01009KT 340V090 9999 SCT042 17/07 Q1017 NOSIG
EGLL 241220Z AUTO 02008KT 330V070 9999 SCT038 BKN044 16/07 Q1017 NOSIG
EGLL 241150Z AUTO 02008KT 340V060 9999 SCT034 BKN044 17/08 Q1017
EGLL 241120Z AUTO 36008KT 320V020 9999 FEW033 SCT042 16/08 Q1017
EGLL 241050Z AUTO 36007KT 9999 FEW029 16/09 Q1017
EGLL 241020Z AUTO 35007KT 320V030 9999 FEW028 15/09 Q1017
EGLL 240950Z AUTO 36007KT 330V050 9999 NCD 14/08 Q1017
EGLL 240920Z AUTO 02005KT 330V060 9999 NCD 14/09 Q1017
EGLL 240850Z AUTO 36005KT 310V060 9999 NCD 13/09 Q1017 NOSIG
EGLL 240820Z AUTO 02004KT 330V070 9999 NCD 12/09 Q1017 NOSIG
EGLL 240750Z AUTO 36004KT 300V050 9999 NCD 12/09 Q1016 NOSIG
EGLL 240720Z AUTO 33004KT 300V020 9999 NCD 11/08 Q1016 NOSIG
EGLL 240650Z AUTO VRB02KT 9999 NCD 10/08 Q1016 NOSIG
EGLL 240620Z AUTO 30003KT 9999 NCD 10/08 Q1016 NOSIG
EGLL 240550Z AUTO 30003KT 9999 NCD 10/08 Q1015
EGLL 240520Z AUTO 30003KT 9999 NCD 10/09 Q1015 NOSIG
EGLL 240450Z AUTO 30003KT 9999 NCD 10/09 Q1015 NOSIG
EGLL 240420Z AUTO 30003KT 9999 NCD 09/09 Q1015
EGLL 240350Z AUTO 30002KT 9999 NCD 10/09 Q1015
EGLL 240320Z AUTO VRB02KT 9999 NCD 11/09 Q1015 NOSIG
EGLL 240250Z AUTO VRB02KT 9999 NCD 11/09 Q1015 NOSIG
EGLL 240220Z AUTO VRB02KT 9999 NCD 11/09 Q1015
EGLL 240150Z AUTO VRB02KT 9999 NCD 11/09 Q1015 NOSIG
EGLL 240120Z AUTO VRB02KT 9999 NCD 11/09 Q1015
EGLL 240050Z AUTO 35004KT 310V020 9999 NCD 12/10 Q1015 NOSIG
EGLL 240020Z AUTO 35003KT 310V030 9999 NCD 12/10 Q1015
EGLL 232350Z AUTO 34003KT 310V020 9999 NCD 13/10 Q1015
EGLL 232320Z AUTO 36004KT 9999 NCD 13/10 Q1015 NOSIG
EGLL 232250Z AUTO 02003KT 340V050 9999 NCD 13/10 Q1015 NOSIG
EGLL 232220Z AUTO 36004KT 9999 NCD 14/10 Q1015 NOSIG
EGLL 232150Z AUTO 36004KT 320V020 9999 NCD 14/11 Q1015 NOSIG
EGLL 232120Z AUTO 35003KT 320V020 9999 NCD 15/11 Q1015